Terminal Aerodrome Forecast
Issued by NWS

Home | Current Version | Previous Version | Text Only | Print | Product List | Glossary On
Versions: 1 2 3 4 5 6 7 8 9 10 11 12 13 14 15 16 17 18 19 20 21 22 23 24 25 26 27 28 29 30 31 32 33 34
000
FTUS44 KLUB 180910 AAB
TAFCDS
TAF AMD
KCDS 180910Z 1809/1906 11003KT 1SM BR SCT002
     FM181000 16006KT 1/2SM FG BKN002
     FM181600 20007KT P6SM BKN010
     FM181800 21014KT P6SM FEW250
     FM190100 18008KT P6SM SKC=

USA.gov is the U.S. government's official web portal to all federal, state and local government web resources and services.